Time;durP1;ratioP1;P1;durP2;ratioP2;P2;SDS_P1;SDS_P2;PMS_P1;PMS_P2;Temp;Humidity;BMP_temperature;BMP_pressure;BME280_temperature;BME280_humidity;BME280_pressure;Samples;Min_cycle;Max_cycle;Signal;HPM_P1;HPM_P2
2021/10/04 00:00:54;;;;;;;11.63;2.00;;;9.80;99.90;;;;;;4940129;29;20030;-89
2021/10/04 00:03:20;;;;;;;7.68;1.30;;;9.80;99.90;;;;;;4938288;29;20610;-90
2021/10/04 00:05:46;;;;;;;15.40;1.77;;;9.80;99.90;;;;;;4940151;29;20452;-89
2021/10/04 00:08:12;;;;;;;7.50;1.40;;;9.70;99.90;;;;;;4939078;29;20031;-90
2021/10/04 00:10:37;;;;;;;7.55;1.52;;;9.70;99.90;;;;;;4939448;29;20393;-90
2021/10/04 00:13:03;;;;;;;13.43;1.65;;;9.60;99.90;;;;;;4940859;29;20058;-89
2021/10/04 00:15:30;;;;;;;9.93;1.30;;;9.60;99.90;;;;;;4939695;29;20023;-90
2021/10/04 00:17:56;;;;;;;11.00;1.40;;;9.60;99.90;;;;;;4939216;29;20035;-90
2021/10/04 00:20:22;;;;;;;9.18;1.52;;;9.60;99.90;;;;;;4939427;29;20027;-91
2021/10/04 00:22:49;;;;;;;6.65;1.30;;;9.50;99.90;;;;;;4940121;29;20027;-91
2021/10/04 00:25:15;;;;;;;6.63;2.25;;;9.50;99.90;;;;;;4939849;29;20035;-90
2021/10/04 00:27:41;;;;;;;11.55;1.60;;;9.60;99.90;;;;;;4940194;29;20452;-91
2021/10/04 00:30:08;;;;;;;5.82;1.10;;;9.60;99.90;;;;;;4939464;29;20130;-89
2021/10/04 00:32:37;;;;;;;11.35;2.28;;;9.50;99.90;;;;;;4938925;29;20055;-90
2021/10/04 00:35:04;;;;;;;11.68;1.58;;;9.50;99.90;;;;;;4939328;29;20029;-90
2021/10/04 00:37:30;;;;;;;7.88;1.48;;;9.60;99.90;;;;;;4941681;29;20043;-90
2021/10/04 00:39:56;;;;;;;9.90;1.50;;;9.60;99.90;;;;;;4947459;29;20031;-90
2021/10/04 00:42:22;;;;;;;8.27;1.13;;;9.60;99.90;;;;;;4947711;29;20054;-90
2021/10/04 00:44:49;;;;;;;11.65;1.88;;;9.60;99.90;;;;;;4945065;29;20035;-90
2021/10/04 00:47:16;;;;;;;7.90;1.45;;;9.50;99.90;;;;;;4941995;29;20042;-90
2021/10/04 00:49:42;;;;;;;14.18;1.52;;;9.50;99.90;;;;;;4942166;29;20027;-89
2021/10/04 00:52:08;;;;;;;10.65;1.58;;;9.50;99.90;;;;;;4939773;29;20074;-90
2021/10/04 00:54:33;;;;;;;7.10;1.25;;;9.50;99.90;;;;;;4938540;29;20090;-90
2021/10/04 00:56:59;;;;;;;15.18;2.63;;;9.60;99.90;;;;;;4939435;29;20079;-89
2021/10/04 00:59:25;;;;;;;9.55;1.55;;;9.60;99.90;;;;;;4938960;29;20023;-88
2021/10/04 01:01:51;;;;;;;14.95;1.60;;;9.60;99.90;;;;;;4939152;29;20500;-88
2021/10/04 01:04:17;;;;;;;12.55;1.40;;;9.50;99.90;;;;;;4938604;29;20063;-88
2021/10/04 01:06:43;;;;;;;11.60;1.50;;;9.50;99.90;;;;;;4938812;29;20109;-90
2021/10/04 01:09:08;;;;;;;12.55;2.03;;;9.50;99.90;;;;;;4938506;29;20117;-90
2021/10/04 01:11:34;;;;;;;7.85;1.42;;;9.50;99.90;;;;;;4938907;29;20035;-89
2021/10/04 01:14:00;;;;;;;14.73;1.92;;;9.40;99.90;;;;;;4938413;29;20066;-89
2021/10/04 01:16:25;;;;;;;13.18;2.20;;;9.40;99.90;;;;;;4938105;29;20039;-90
2021/10/04 01:18:51;;;;;;;9.98;1.20;;;9.40;99.90;;;;;;4938253;29;20031;-90
2021/10/04 01:21:17;;;;;;;14.00;2.13;;;9.40;99.90;;;;;;4938208;29;20043;-91
2021/10/04 01:23:42;;;;;;;11.73;1.80;;;9.40;99.90;;;;;;4938079;29;20114;-90
2021/10/04 01:26:08;;;;;;;13.57;1.80;;;9.30;99.90;;;;;;4938977;29;20031;-92
2021/10/04 01:28:34;;;;;;;11.10;1.40;;;9.30;99.90;;;;;;4938430;29;20034;-90
2021/10/04 01:30:59;;;;;;;9.00;1.63;;;9.30;99.90;;;;;;4937942;29;20039;-90
2021/10/04 01:33:25;;;;;;;15.02;2.22;;;9.30;99.90;;;;;;4937933;29;20179;-91
2021/10/04 01:35:51;;;;;;;13.00;1.80;;;9.30;99.90;;;;;;4938503;29;20023;-90
2021/10/04 01:38:17;;;;;;;11.43;2.22;;;9.30;99.90;;;;;;4938218;29;20039;-90
2021/10/04 01:40:43;;;;;;;17.48;2.17;;;9.30;99.90;;;;;;4938262;29;20035;-91
2021/10/04 01:43:10;;;;;;;20.13;2.03;;;9.30;99.90;;;;;;4938133;29;20102;-91
2021/10/04 01:45:37;;;;;;;24.60;2.25;;;9.30;99.90;;;;;;4938721;29;20106;-91
2021/10/04 01:48:03;;;;;;;20.45;2.63;;;9.40;99.90;;;;;;4938610;29;20090;-90
2021/10/04 01:50:30;;;;;;;12.68;1.90;;;9.40;99.90;;;;;;4938897;29;20631;-90
2021/10/04 01:52:56;;;;;;;16.75;1.77;;;9.40;99.90;;;;;;4938817;29;20020;-89
2021/10/04 01:55:22;;;;;;;17.83;2.30;;;9.40;99.90;;;;;;4938678;29;20437;-90
2021/10/04 01:57:48;;;;;;;13.40;1.80;;;9.40;99.90;;;;;;4938297;29;20074;-90
2021/10/04 02:00:16;;;;;;;16.83;1.98;;;9.40;99.90;;;;;;4938321;29;20126;-89
2021/10/04 02:02:44;;;;;;;20.50;2.55;;;9.50;99.90;;;;;;4938655;29;20094;-90
2021/10/04 02:05:10;;;;;;;15.75;3.33;;;9.50;99.90;;;;;;4936451;28;20031;-90
2021/10/04 02:07:37;;;;;;;14.20;1.90;;;9.40;99.90;;;;;;4941735;29;20081;-90
2021/10/04 02:10:05;;;;;;;24.90;2.97;;;9.50;99.90;;;;;;4941915;29;20031;-90
2021/10/04 02:12:31;;;;;;;21.23;2.15;;;9.40;99.90;;;;;;4942209;29;20039;-90
2021/10/04 02:14:56;;;;;;;13.63;2.05;;;9.40;99.90;;;;;;4942052;29;20019;-90
2021/10/04 02:17:22;;;;;;;14.07;2.55;;;9.40;99.90;;;;;;4942333;29;20039;-90
2021/10/04 02:19:48;;;;;;;10.70;1.75;;;9.50;99.90;;;;;;4941900;29;20135;-89
2021/10/04 02:22:13;;;;;;;9.40;1.70;;;9.40;99.90;;;;;;4941732;29;20114;-90
2021/10/04 02:24:39;;;;;;;13.98;2.08;;;9.40;99.90;;;;;;4959017;29;20397;-90
2021/10/04 02:27:04;;;;;;;14.82;3.00;;;9.40;99.90;;;;;;4942175;29;20087;-91
2021/10/04 02:29:30;;;;;;;16.23;2.53;;;9.40;99.90;;;;;;4941693;29;20039;-89
2021/10/04 02:31:56;;;;;;;13.30;3.22;;;9.40;99.90;;;;;;4941332;29;20043;-90
2021/10/04 02:34:21;;;;;;;15.68;3.15;;;9.40;99.90;;;;;;4942868;29;20122;-91
2021/10/04 02:36:47;;;;;;;16.30;2.55;;;9.40;99.90;;;;;;4942148;29;20062;-91
2021/10/04 02:39:13;;;;;;;12.95;2.22;;;9.40;99.90;;;;;;4942094;29;20023;-91
2021/10/04 02:41:38;;;;;;;15.15;1.98;;;9.40;99.90;;;;;;4942724;29;20118;-91
2021/10/04 02:44:04;;;;;;;19.05;2.33;;;9.40;99.90;;;;;;4944984;29;20355;-91
2021/10/04 02:46:30;;;;;;;9.90;1.33;;;9.40;99.90;;;;;;4945354;29;20094;-92
2021/10/04 02:48:56;;;;;;;14.25;2.70;;;9.40;99.90;;;;;;4942747;29;20039;-92
2021/10/04 02:51:22;;;;;;;16.73;1.90;;;9.40;99.90;;;;;;4948218;29;20086;-91
2021/10/04 02:53:47;;;;;;;25.10;2.50;;;9.40;99.90;;;;;;4946853;29;20027;-90
2021/10/04 02:56:13;;;;;;;15.27;2.63;;;9.40;99.90;;;;;;4941721;29;20030;-91
2021/10/04 02:58:38;;;;;;;21.52;2.85;;;9.40;99.90;;;;;;4941705;29;20027;-91
2021/10/04 03:01:04;;;;;;;14.35;2.15;;;9.40;99.90;;;;;;4940920;29;20031;-90
2021/10/04 03:03:30;;;;;;;11.43;1.67;;;9.40;99.90;;;;;;4941473;29;20059;-90
2021/10/04 03:05:56;;;;;;;16.73;1.70;;;9.30;99.90;;;;;;4941252;29;20066;-90
2021/10/04 03:08:21;;;;;;;19.45;1.77;;;9.30;99.90;;;;;;4940974;29;20023;-90
2021/10/04 03:10:47;;;;;;;15.45;1.73;;;9.30;99.90;;;;;;4940840;29;20082;-90
2021/10/04 03:13:13;;;;;;;14.43;3.30;;;9.30;99.90;;;;;;4941318;29;20042;-89
2021/10/04 03:15:38;;;;;;;15.35;2.08;;;9.30;99.90;;;;;;4940831;29;20476;-90
2021/10/04 03:18:05;;;;;;;16.02;1.90;;;9.20;99.90;;;;;;4940122;29;20059;-91
2021/10/04 03:20:30;;;;;;;18.40;2.50;;;9.20;99.90;;;;;;4940972;29;20054;-90
2021/10/04 03:22:56;;;;;;;17.00;2.78;;;9.20;99.90;;;;;;4940634;29;20034;-91
2021/10/04 03:25:23;;;;;;;10.23;1.75;;;9.20;99.90;;;;;;4957798;29;20119;-91
2021/10/04 03:27:49;;;;;;;10.75;2.20;;;9.20;99.90;;;;;;4940545;29;20041;-91
2021/10/04 03:30:15;;;;;;;15.32;1.98;;;9.20;99.90;;;;;;4940426;29;20031;-91
2021/10/04 03:32:41;;;;;;;7.97;1.92;;;9.20;99.90;;;;;;4940524;29;20469;-91
2021/10/04 03:35:08;;;;;;;9.32;2.17;;;9.10;99.90;;;;;;4940186;29;20023;-91
2021/10/04 03:37:34;;;;;;;14.77;1.80;;;9.10;99.90;;;;;;4940715;29;20038;-89
2021/10/04 03:40:00;;;;;;;10.48;1.90;;;9.10;99.90;;;;;;4940563;29;20141;-90
2021/10/04 03:42:25;;;;;;;16.67;2.08;;;9.10;99.90;;;;;;4940437;29;20054;-90
2021/10/04 03:44:51;;;;;;;18.85;3.78;;;9.10;99.90;;;;;;4940550;29;20556;-89
2021/10/04 03:47:17;;;;;;;17.92;1.55;;;9.10;99.90;;;;;;4940883;29;20408;-90
2021/10/04 03:49:43;;;;;;;15.38;2.80;;;9.10;99.90;;;;;;4940366;29;20028;-90
2021/10/04 03:52:09;;;;;;;17.48;2.50;;;9.10;99.90;;;;;;4940270;29;20039;-89
2021/10/04 03:54:34;;;;;;;14.45;2.13;;;9.10;99.90;;;;;;4940445;29;20028;-90
2021/10/04 03:57:00;;;;;;;9.30;2.35;;;9.10;99.90;;;;;;4940548;29;20043;-89
2021/10/04 03:59:26;;;;;;;11.82;2.03;;;9.00;99.90;;;;;;4940183;29;20027;-90
2021/10/04 04:01:52;;;;;;;7.18;1.42;;;9.00;99.90;;;;;;4940451;29;20028;-89
2021/10/04 04:04:17;;;;;;;13.05;2.10;;;9.00;99.90;;;;;;4938229;29;20046;-92
2021/10/04 04:06:43;;;;;;;12.52;1.92;;;9.00;99.90;;;;;;4939391;29;20117;-89
2021/10/04 04:09:09;;;;;;;10.90;2.00;;;9.00;99.90;;;;;;4940100;29;20042;-90
2021/10/04 04:11:35;;;;;;;14.75;1.80;;;9.00;99.90;;;;;;4939731;29;20035;-89
2021/10/04 04:14:00;;;;;;;11.02;1.70;;;9.00;99.90;;;;;;4939674;29;20027;-89
2021/10/04 04:16:26;;;;;;;14.38;2.00;;;8.90;99.90;;;;;;4939451;29;20485;-89
2021/10/04 04:18:51;;;;;;;11.80;2.10;;;8.90;99.90;;;;;;4939256;29;20529;-89
2021/10/04 04:21:17;;;;;;;12.65;2.20;;;8.90;99.90;;;;;;4939347;29;20027;-89
2021/10/04 04:23:43;;;;;;;15.05;2.00;;;8.90;99.90;;;;;;4939319;29;20062;-90
2021/10/04 04:26:09;;;;;;;15.07;2.30;;;8.80;99.90;;;;;;4939848;29;20035;-91
2021/10/04 04:28:34;;;;;;;9.02;2.08;;;8.90;99.90;;;;;;4940028;29;20024;-91
2021/10/04 04:31:01;;;;;;;7.95;1.80;;;8.80;99.90;;;;;;4939521;29;20047;-90
2021/10/04 04:33:27;;;;;;;11.10;1.48;;;8.80;99.90;;;;;;4939511;29;20047;-90
2021/10/04 04:35:53;;;;;;;9.23;2.22;;;8.80;99.90;;;;;;4939472;29;20050;-90
2021/10/04 04:38:19;;;;;;;6.78;1.70;;;8.90;99.90;;;;;;4939791;29;20386;-90
2021/10/04 04:40:47;;;;;;;9.65;1.80;;;8.80;99.90;;;;;;4939801;29;20122;-88
2021/10/04 04:43:12;;;;;;;6.95;2.17;;;8.90;99.90;;;;;;4939985;29;20046;-91
2021/10/04 04:45:38;;;;;;;6.53;1.50;;;8.80;99.90;;;;;;4939525;29;20493;-91
2021/10/04 04:48:04;;;;;;;5.65;1.92;;;8.80;99.90;;;;;;4939541;29;20042;-91
2021/10/04 04:50:30;;;;;;;11.48;1.50;;;8.80;99.90;;;;;;4944151;29;20027;-90
2021/10/04 04:52:56;;;;;;;8.77;1.80;;;8.80;99.90;;;;;;4948225;29;20405;-91
2021/10/04 04:55:21;;;;;;;7.47;2.28;;;8.80;99.90;;;;;;4946280;29;20070;-91
2021/10/04 04:57:47;;;;;;;6.38;1.50;;;8.80;99.90;;;;;;4942638;29;20031;-90
2021/10/04 05:00:14;;;;;;;4.53;1.90;;;8.80;99.90;;;;;;4941890;29;20047;-90
2021/10/04 05:02:44;;;;;;;8.77;1.90;;;8.80;99.90;;;;;;4938806;29;20031;-91
2021/10/04 05:05:13;;;;;;;7.43;1.55;;;8.80;99.90;;;;;;4938301;29;20042;-90
2021/10/04 05:07:38;;;;;;;8.77;1.67;;;8.80;99.90;;;;;;4938014;29;20104;-90
2021/10/04 05:10:06;;;;;;;9.48;1.77;;;8.70;99.90;;;;;;4932759;29;20115;-91
2021/10/04 05:12:32;;;;;;;8.55;1.70;;;8.70;99.90;;;;;;4931706;29;20452;-91
2021/10/04 05:14:57;;;;;;;3.95;1.48;;;8.70;99.90;;;;;;4926028;29;20102;-89
2021/10/04 05:17:23;;;;;;;5.80;1.77;;;8.70;99.90;;;;;;4962969;28;20019;-91
2021/10/04 05:19:49;;;;;;;6.97;1.50;;;8.60;99.90;;;;;;4931210;29;20031;-90
2021/10/04 05:22:14;;;;;;;6.68;1.60;;;8.60;99.90;;;;;;4930249;29;20023;-90
2021/10/04 05:24:40;;;;;;;11.88;3.35;;;8.60;99.90;;;;;;4927509;29;20035;-90
2021/10/04 05:27:06;;;;;;;7.25;1.58;;;8.60;99.90;;;;;;4924547;29;20034;-90
2021/10/04 05:29:31;;;;;;;7.97;1.67;;;8.60;99.90;;;;;;4926828;29;20027;-90
2021/10/04 05:31:57;;;;;;;7.28;2.50;;;8.60;99.90;;;;;;4933099;29;20047;-91
2021/10/04 05:34:23;;;;;;;7.85;1.70;;;8.60;99.90;;;;;;4937437;29;20034;-92
2021/10/04 05:36:48;;;;;;;5.57;1.70;;;8.60;99.90;;;;;;4937923;29;20548;-91
2021/10/04 05:39:14;;;;;;;7.97;1.67;;;8.60;99.90;;;;;;4937807;29;20119;-91
2021/10/04 05:41:40;;;;;;;6.30;1.50;;;8.60;99.90;;;;;;4940186;29;20034;-91
2021/10/04 05:44:07;;;;;;;10.52;2.00;;;8.60;99.90;;;;;;4941405;29;20426;-91
2021/10/04 05:46:34;;;;;;;7.38;2.92;;;8.60;99.90;;;;;;4941233;29;20065;-92
2021/10/04 05:49:00;;;;;;;6.03;1.65;;;8.60;99.90;;;;;;4941625;29;20016;-91
2021/10/04 05:51:25;;;;;;;9.10;2.35;;;8.60;99.90;;;;;;4942227;29;20043;-91
2021/10/04 05:53:51;;;;;;;3.92;1.73;;;8.50;99.90;;;;;;4942384;29;20035;-91
2021/10/04 05:56:17;;;;;;;6.47;2.03;;;8.50;99.90;;;;;;4942508;29;20492;-90
2021/10/04 05:58:42;;;;;;;8.95;2.28;;;8.50;99.90;;;;;;4942490;29;20042;-91
2021/10/04 06:01:08;;;;;;;9.57;2.60;;;8.50;99.90;;;;;;4942894;29;20077;-90
2021/10/04 06:03:34;;;;;;;5.28;2.00;;;8.50;99.90;;;;;;4941223;29;20031;-91
2021/10/04 06:10:51;;;;;;;5.55;2.58;;;8.60;99.90;;;;;;4909411;29;20048;-91
2021/10/04 06:13:16;;;;;;;11.60;2.25;;;8.60;99.90;;;;;;4921698;29;20036;-92
2021/10/04 06:15:43;;;;;;;7.18;2.45;;;8.60;99.90;;;;;;4920577;29;20032;-91
2021/10/04 06:18:11;;;;;;;11.45;2.40;;;8.60;99.90;;;;;;4912250;29;20024;-92
2021/10/04 06:20:38;;;;;;;8.38;2.33;;;8.60;99.90;;;;;;4936755;29;20024;-91
2021/10/04 06:23:04;;;;;;;8.02;2.58;;;8.60;99.90;;;;;;4921088;29;20087;-92
2021/10/04 06:25:30;;;;;;;8.95;2.80;;;8.70;99.90;;;;;;4921428;29;20486;-91
2021/10/04 06:27:56;;;;;;;11.07;4.03;;;8.70;99.90;;;;;;4921539;29;20020;-92
2021/10/04 06:30:22;;;;;;;4.85;2.30;;;8.70;99.90;;;;;;4921283;29;20489;-90
2021/10/04 06:32:48;;;;;;;13.38;2.83;;;8.80;99.90;;;;;;4914523;29;20091;-89
2021/10/04 06:35:14;;;;;;;11.10;3.58;;;8.80;99.90;;;;;;4905247;29;20074;-90
2021/10/04 06:37:40;;;;;;;7.18;2.78;;;8.80;99.90;;;;;;4920190;29;20047;-91
2021/10/04 06:40:07;;;;;;;8.27;2.92;;;8.80;99.90;;;;;;4925353;29;20521;-91
2021/10/04 06:42:33;;;;;;;11.20;3.28;;;8.80;99.90;;;;;;4905285;29;20102;-92
2021/10/04 06:44:59;;;;;;;8.38;2.88;;;8.90;99.90;;;;;;4899342;29;20060;-91
2021/10/04 06:47:25;;;;;;;15.93;3.15;;;8.90;99.90;;;;;;4913601;29;20036;-91
2021/10/04 06:49:50;;;;;;;7.72;3.10;;;8.90;99.90;;;;;;4917562;29;20093;-91
2021/10/04 06:52:16;;;;;;;8.57;2.40;;;8.90;99.90;;;;;;4919723;29;20497;-91
2021/10/04 06:54:42;;;;;;;8.75;2.50;;;8.90;99.90;;;;;;4902008;29;20038;-91
2021/10/04 06:57:08;;;;;;;7.82;2.72;;;9.00;99.90;;;;;;4900594;29;20058;-92
2021/10/04 06:59:34;;;;;;;8.57;2.38;;;9.00;99.90;;;;;;4904382;29;20512;-91
2021/10/04 07:02:01;;;;;;;4.50;2.50;;;9.00;99.90;;;;;;4903635;29;20024;-92
2021/10/04 07:04:26;;;;;;;7.80;2.25;;;9.10;99.90;;;;;;4915211;29;20482;-93
2021/10/04 07:06:52;;;;;;;6.38;2.20;;;9.10;99.90;;;;;;4915786;29;20160;-92
2021/10/04 07:09:18;;;;;;;6.05;2.20;;;9.20;99.90;;;;;;4898478;29;20051;-90
2021/10/04 07:11:43;;;;;;;7.00;2.08;;;9.20;99.90;;;;;;4900196;29;20081;-91
2021/10/04 07:14:09;;;;;;;5.53;2.47;;;9.20;99.90;;;;;;4901059;29;20105;-90
2021/10/04 07:16:35;;;;;;;7.60;2.10;;;9.30;99.90;;;;;;4900417;29;20042;-91
2021/10/04 07:19:01;;;;;;;9.98;2.42;;;9.30;99.90;;;;;;4899497;29;20036;-92
2021/10/04 07:21:26;;;;;;;8.77;2.08;;;9.40;99.90;;;;;;4915885;29;20502;-92
2021/10/04 07:23:52;;;;;;;8.93;2.20;;;9.40;99.90;;;;;;4900271;29;20155;-92
2021/10/04 07:26:18;;;;;;;8.38;2.00;;;9.40;99.90;;;;;;4902938;29;20023;-92
2021/10/04 07:28:44;;;;;;;7.20;2.00;;;9.50;99.90;;;;;;4900442;29;20063;-91
2021/10/04 07:31:10;;;;;;;9.02;2.08;;;9.50;99.90;;;;;;4900077;29;20347;-91
2021/10/04 07:33:36;;;;;;;9.88;1.80;;;9.50;99.90;;;;;;4916332;29;20040;-91
2021/10/04 07:36:06;;;;;;;11.93;2.00;;;9.60;99.90;;;;;;4900214;29;20401;-92
2021/10/04 07:38:32;;;;;;;6.43;1.50;;;9.60;99.90;;;;;;4901456;29;20024;-92
2021/10/04 07:40:58;;;;;;;3.47;2.17;;;9.60;99.90;;;;;;4918636;29;20036;-91
2021/10/04 07:43:24;;;;;;;7.15;1.45;;;9.60;99.90;;;;;;4900367;29;20512;-91
2021/10/04 07:45:50;;;;;;;8.77;1.38;;;9.70;99.90;;;;;;4901722;29;20025;-92
2021/10/04 07:48:15;;;;;;;4.60;1.70;;;9.70;99.90;;;;;;4900372;29;20115;-92
2021/10/04 07:50:44;;;;;;;4.13;1.13;;;9.80;99.90;;;;;;4900210;29;20047;-91
2021/10/04 07:53:11;;;;;;;7.63;1.98;;;9.80;99.90;;;;;;4900594;29;20028;-92
2021/10/04 07:55:39;;;;;;;5.05;1.27;;;9.80;99.90;;;;;;4899095;29;20089;-92
2021/10/04 07:58:05;;;;;;;5.53;1.40;;;9.90;99.90;;;;;;4916579;29;20036;-91
2021/10/04 08:00:31;;;;;;;7.00;1.30;;;9.90;99.90;;;;;;4901834;29;20036;-91
2021/10/04 08:02:57;;;;;;;11.65;1.30;;;9.90;99.90;;;;;;4901510;29;20035;-92
2021/10/04 08:05:23;;;;;;;7.85;1.15;;;10.00;99.90;;;;;;4901647;29;20032;-93
2021/10/04 08:07:49;;;;;;;6.25;0.98;;;10.10;99.90;;;;;;4902059;29;20074;-92
2021/10/04 08:10:14;;;;;;;6.28;1.42;;;10.10;99.90;;;;;;4900990;29;20079;-92
2021/10/04 08:12:40;;;;;;;5.68;1.17;;;10.20;99.90;;;;;;4899879;29;20122;-93
2021/10/04 08:15:08;;;;;;;5.78;1.30;;;10.30;99.90;;;;;;4901017;29;20031;-94
2021/10/04 08:17:34;;;;;;;6.45;0.98;;;10.30;99.90;;;;;;4900524;29;20086;-94
2021/10/04 08:20:00;;;;;;;4.70;1.20;;;10.40;99.90;;;;;;4901824;29;20024;-92
2021/10/04 08:22:35;;;;;;;6.78;1.15;;;10.40;99.90;;;;;;4905010;29;20021;-93
2021/10/04 08:25:04;;;;;;;5.72;1.85;;;10.50;99.90;;;;;;4910495;29;20035;-92
2021/10/04 08:27:34;;;;;;;6.65;1.30;;;10.60;99.90;;;;;;4905605;29;20048;-92
2021/10/04 08:30:00;;;;;;;2.53;0.70;;;10.70;99.90;;;;;;4918234;29;20056;-92
2021/10/04 15:57:02;;;;;;;4.88;1.88;;;15.70;96.60;;;;;;5369966;23;1261220;-91
2021/10/04 15:59:27;;;;;;;3.33;1.55;;;15.50;97.10;;;;;;4940117;29;20043;-92
2021/10/04 16:02:01;;;;;;;6.47;2.92;;;15.50;97.00;;;;;;4935045;29;20031;-93
2021/10/04 16:04:27;;;;;;;11.13;4.35;;;15.40;96.90;;;;;;4947305;29;20023;-91
2021/10/04 16:10:00;;;;;;;6.60;2.92;;;15.80;96.50;;;;;;4953651;29;20047;-92
2021/10/04 16:13:05;;;;;;;25.77;9.93;;;15.80;95.10;;;;;;4939294;29;20028;-93
2021/10/04 16:15:30;;;;;;;2.53;0.60;;;15.90;94.70;;;;;;4939870;29;20032;-92
2021/10/04 16:17:56;;;;;;;9.02;2.88;;;15.80;94.00;;;;;;4940243;29;20142;-92
2021/10/04 16:20:22;;;;;;;16.40;4.60;;;15.60;93.70;;;;;;4928398;29;20023;-93
2021/10/04 16:22:47;;;;;;;23.58;7.57;;;15.50;93.90;;;;;;4939604;29;20032;-92
2021/10/04 16:25:14;;;;;;;7.93;2.65;;;15.40;94.30;;;;;;4938953;29;20031;-94
2021/10/04 16:27:42;;;;;;;2.10;0.77;;;15.40;94.30;;;;;;4939631;29;20114;-94
2021/10/04 16:30:11;;;;;;;4.15;0.80;;;15.20;94.50;;;;;;4939266;29;20485;-93
2021/10/04 16:32:37;;;;;;;2.50;0.70;;;15.10;94.80;;;;;;4934732;28;20103;-93
2021/10/04 16:35:03;;;;;;;3.67;1.42;;;15.10;95.10;;;;;;4931575;29;20123;-93
2021/10/04 16:37:29;;;;;;;3.50;1.67;;;15.10;95.30;;;;;;4938416;29;20118;-93
2021/10/04 16:39:54;;;;;;;4.03;2.50;;;15.10;95.20;;;;;;4926928;29;20138;-93
2021/10/04 16:42:20;;;;;;;7.97;2.72;;;15.20;95.30;;;;;;4934243;29;20058;-92
2021/10/04 16:44:46;;;;;;;6.75;3.08;;;15.30;95.30;;;;;;4934490;28;20042;-92
2021/10/04 16:47:11;;;;;;;6.10;2.50;;;15.40;95.20;;;;;;4940425;29;20031;-93
2021/10/04 16:49:37;;;;;;;7.65;2.67;;;15.40;94.90;;;;;;4940377;29;20042;-92
2021/10/04 16:52:04;;;;;;;5.13;2.67;;;15.20;95.20;;;;;;4940224;29;20035;-93
2021/10/04 16:54:30;;;;;;;4.22;2.40;;;14.90;95.70;;;;;;4938838;29;20023;-92
